createdAt,value
2023-09-11T00:01:24.589Z,100.00
2023-09-11T00:03:52.383Z,100.00
2023-09-11T00:06:19.986Z,100.00
2023-09-11T00:08:47.471Z,100.00
2023-09-11T00:11:14.983Z,100.00
2023-09-11T00:13:42.440Z,100.00
2023-09-11T00:16:10.042Z,100.00
2023-09-11T00:18:39.624Z,100.00
2023-09-11T00:21:07.422Z,100.00
2023-09-11T00:23:34.874Z,99.73
2023-09-11T00:26:02.557Z,100.00
2023-09-11T00:28:30.360Z,98.81
2023-09-11T00:31:01.641Z,99.51
2023-09-11T00:33:29.209Z,99.55
2023-09-11T00:35:56.868Z,100.00
2023-09-11T00:38:24.486Z,100.00
2023-09-11T00:40:51.977Z,100.00
2023-09-11T00:43:19.429Z,100.00
2023-09-11T00:45:47.797Z,100.00
2023-09-11T00:48:15.345Z,100.00
2023-09-11T00:50:45.550Z,100.00
2023-09-11T00:53:13.145Z,100.00
2023-09-11T00:55:41.566Z,100.00
2023-09-11T00:58:09.033Z,100.00
2023-09-11T01:00:36.608Z,100.00
2023-09-11T01:03:04.764Z,100.00
2023-09-11T01:05:33.284Z,100.00
2023-09-11T01:08:01.561Z,100.00
2023-09-11T01:10:29.050Z,99.69
2023-09-11T01:12:56.681Z,100.00
2023-09-11T01:15:27.090Z,100.00
2023-09-11T01:18:25.470Z,100.00
2023-09-11T01:21:23.741Z,100.00
2023-09-11T01:25:08.933Z,100.00
2023-09-11T01:28:37.924Z,100.00
2023-09-11T01:31:06.342Z,100.00
2023-09-11T01:33:34.635Z,100.00
2023-09-11T01:36:02.107Z,100.00
2023-09-11T01:38:29.634Z,100.00
2023-09-11T01:41:02.365Z,100.00
2023-09-11T01:43:38.494Z,100.00
2023-09-11T01:46:07.393Z,100.00
2023-09-11T01:48:36.832Z,99.83
2023-09-11T01:51:06.558Z,100.00
2023-09-11T01:53:34.242Z,100.00
2023-09-11T05:34:36.555Z,100.00
2023-09-11T05:37:04.331Z,100.00
2023-09-11T05:48:54.445Z,100.00
2023-09-11T05:51:21.938Z,100.00
2023-09-11T05:53:49.481Z,100.00
2023-09-11T05:56:18.015Z,100.00
2023-09-11T05:58:45.461Z,100.00
2023-09-11T06:01:15.082Z,100.00
2023-09-11T06:03:43.006Z,100.00
2023-09-11T06:06:10.867Z,100.00
2023-09-11T06:08:38.772Z,100.00
2023-09-11T06:11:06.482Z,100.00
2023-09-11T06:13:35.246Z,100.00
2023-09-11T06:16:03.003Z,100.00
2023-09-11T06:18:30.677Z,100.00
2023-09-11T06:20:58.287Z,100.00
2023-09-11T06:23:25.921Z,100.00
2023-09-11T06:25:53.607Z,100.00
2023-09-11T06:28:21.249Z,100.00
2023-09-11T06:30:49.106Z,100.00
2023-09-11T06:33:16.634Z,100.00
2023-09-11T06:35:44.275Z,100.00
2023-09-11T06:38:13.192Z,100.00
2023-09-11T06:40:40.654Z,100.00
2023-09-11T06:43:08.070Z,100.00
2023-09-11T06:45:37.024Z,100.00
2023-09-11T06:48:04.840Z,100.00
2023-09-11T06:50:32.753Z,100.00
2023-09-11T06:53:00.244Z,100.00
2023-09-11T06:55:27.693Z,100.00
2023-09-11T06:58:03.017Z,100.00
2023-09-11T07:00:30.809Z,100.00
2023-09-11T07:02:58.351Z,100.00
2023-09-11T07:05:28.121Z,100.00
2023-09-11T07:07:55.788Z,100.00
2023-09-11T07:10:38.298Z,100.00
2023-09-11T07:13:09.019Z,100.00
2023-09-11T07:15:36.531Z,100.00
2023-09-11T07:18:04.067Z,100.00
2023-09-11T07:20:31.713Z,100.00
2023-09-11T07:22:59.243Z,100.00
2023-09-11T07:25:26.821Z,100.00
2023-09-11T07:27:55.745Z,100.00
2023-09-11T07:30:23.500Z,100.00
2023-09-11T07:32:54.324Z,100.00
2023-09-11T07:35:22.997Z,100.00
2023-09-11T07:37:50.486Z,100.00
2023-09-11T07:40:18.483Z,100.00
2023-09-11T07:42:45.979Z,100.00
2023-09-11T07:45:13.997Z,100.00
2023-09-11T07:47:41.608Z,100.00
2023-09-11T07:50:09.974Z,100.00
2023-09-11T07:52:37.534Z,100.00
2023-09-11T07:55:07.988Z,100.00
2023-09-11T07:57:35.376Z,100.00
2023-09-11T08:00:06.200Z,100.00
2023-09-11T08:02:35.544Z,100.00
2023-09-11T08:05:03.073Z,100.00
2023-09-11T08:07:30.537Z,100.00
2023-09-11T08:10:00.200Z,100.00
2023-09-11T08:12:27.642Z,100.00
2023-09-11T08:14:55.143Z,100.00
2023-09-11T08:17:22.661Z,100.00
2023-09-11T08:19:51.199Z,100.00
2023-09-11T08:22:18.658Z,100.00
2023-09-11T08:24:46.196Z,100.00
2023-09-11T08:27:13.674Z,100.00
2023-09-11T08:29:41.418Z,100.00
2023-09-11T08:32:08.939Z,100.00
2023-09-11T08:34:36.398Z,100.00
2023-09-11T08:37:04.971Z,100.00
2023-09-11T08:39:32.451Z,100.00
2023-09-11T08:42:02.135Z,100.00
2023-09-11T08:44:29.965Z,100.00
2023-09-11T08:47:04.572Z,100.00
2023-09-11T08:49:40.101Z,100.00
2023-09-11T08:52:10.503Z,100.00
2023-09-11T08:54:43.378Z,100.00
2023-09-11T08:57:16.109Z,98.94
2023-09-11T08:59:48.165Z,100.00
2023-09-11T09:02:16.276Z,98.73
2023-09-11T09:04:44.922Z,98.20
2023-09-11T09:07:12.949Z,97.36
2023-09-11T09:09:41.331Z,96.00
2023-09-11T09:12:09.081Z,96.64
2023-09-11T09:14:40.151Z,96.47
2023-09-11T09:17:08.248Z,95.85
2023-09-11T09:19:35.691Z,93.89
2023-09-11T09:22:06.413Z,91.06
2023-09-11T09:24:35.877Z,89.91
2023-09-11T09:27:07.197Z,86.54
2023-09-11T09:29:37.947Z,85.49
2023-09-11T09:32:09.065Z,84.78
2023-09-11T09:34:50.431Z,83.75
2023-09-11T09:37:21.129Z,82.00
2023-09-11T09:39:52.261Z,80.11
2023-09-11T09:42:20.591Z,81.02
2023-09-11T09:44:54.711Z,79.60
2023-09-11T09:47:23.888Z,77.90
2023-09-11T09:49:59.210Z,73.31
2023-09-11T09:52:32.428Z,76.92
2023-09-11T09:55:04.078Z,73.82
2023-09-11T09:57:31.924Z,68.12
2023-09-11T10:00:03.118Z,67.12
2023-09-11T10:02:36.010Z,67.69
2023-09-11T10:05:10.089Z,67.09
2023-09-11T10:07:44.733Z,66.47
2023-09-11T10:10:26.767Z,64.52
2023-09-11T10:13:14.090Z,64.47
2023-09-11T10:15:45.066Z,65.59
2023-09-11T10:18:14.451Z,64.89
2023-09-11T10:20:42.396Z,66.25
2023-09-11T10:23:10.551Z,64.24
2023-09-11T10:25:45.959Z,63.19
2023-09-11T10:28:44.102Z,62.46
2023-09-11T10:31:40.321Z,64.11
2023-09-11T10:34:10.873Z,61.81
2023-09-11T10:36:58.178Z,61.86
2023-09-11T10:39:26.725Z,62.21
2023-09-11T10:41:54.396Z,62.05
2023-09-11T10:44:22.066Z,60.29
2023-09-11T10:46:53.429Z,59.42
2023-09-11T10:49:26.230Z,57.28
2023-09-11T10:51:54.237Z,57.48
2023-09-11T10:54:24.801Z,55.91
2023-09-11T10:56:53.416Z,56.01
2023-09-11T10:59:25.343Z,55.26
2023-09-11T11:01:53.996Z,54.55
2023-09-11T11:04:25.417Z,54.01
2023-09-11T11:07:00.328Z,53.74
2023-09-11T11:09:35.353Z,56.23
2023-09-11T11:12:14.730Z,51.59
2023-09-11T11:14:43.148Z,52.45
2023-09-11T11:17:12.817Z,52.73
2023-09-11T11:20:00.221Z,52.58
2023-09-11T11:22:40.601Z,51.59
2023-09-11T11:25:12.054Z,51.41
2023-09-11T11:27:46.010Z,50.95
2023-09-11T11:30:14.146Z,51.09
2023-09-11T11:32:42.344Z,50.62
2023-09-11T11:35:12.299Z,49.50
2023-09-11T11:37:47.295Z,49.74
2023-09-11T11:40:15.722Z,48.18
2023-09-11T11:42:43.306Z,48.29
2023-09-11T11:45:12.205Z,48.91
2023-09-11T11:47:40.066Z,48.79
2023-09-11T11:50:14.414Z,48.05
2023-09-11T11:52:49.305Z,47.65
2023-09-11T11:55:26.144Z,46.30
2023-09-11T11:57:54.761Z,47.24
2023-09-11T12:00:22.548Z,46.23
2023-09-11T12:02:51.478Z,45.64
2023-09-11T12:05:19.353Z,44.37
2023-09-11T12:07:47.077Z,44.84
2023-09-11T12:10:14.733Z,43.38
2023-09-11T12:12:45.870Z,43.04
2023-09-11T12:15:13.606Z,44.11
2023-09-11T12:17:51.701Z,43.35
2023-09-11T12:20:24.507Z,42.61
2023-09-11T12:22:52.094Z,42.85
2023-09-11T12:25:20.211Z,41.92
2023-09-11T12:27:48.384Z,41.91
2023-09-11T12:30:16.649Z,41.18
2023-09-11T12:32:46.768Z,42.08
2023-09-11T12:35:14.677Z,42.22
2023-09-11T12:37:42.405Z,41.45
2023-09-11T12:40:10.557Z,41.96
2023-09-11T12:42:39.868Z,43.03
2023-09-11T12:45:09.914Z,41.69
2023-09-11T12:47:38.018Z,42.52
2023-09-11T12:50:07.425Z,41.88
2023-09-11T12:52:35.375Z,41.94
2023-09-11T12:55:05.108Z,42.27
2023-09-11T12:57:32.624Z,41.22
2023-09-11T13:00:00.275Z,40.18
2023-09-11T13:02:34.628Z,39.38
2023-09-11T13:05:10.890Z,39.05
2023-09-11T13:07:38.486Z,38.72
2023-09-11T13:10:07.677Z,38.77
2023-09-11T13:12:35.225Z,39.24
2023-09-11T13:15:02.692Z,37.95
2023-09-11T13:17:31.145Z,38.53
2023-09-11T13:20:00.467Z,37.54
2023-09-11T13:22:28.477Z,39.66
2023-09-11T13:24:56.044Z,39.43
2023-09-11T13:27:23.613Z,37.85
2023-09-11T13:29:51.209Z,37.71
2023-09-11T13:32:18.848Z,37.44
2023-09-11T13:34:46.676Z,37.96
2023-09-11T13:37:14.781Z,37.55
2023-09-11T13:39:43.079Z,37.62
2023-09-11T13:42:10.966Z,37.11
2023-09-11T13:44:38.638Z,36.60
2023-09-11T13:47:06.261Z,36.71
2023-09-11T13:49:33.939Z,36.86
2023-09-11T13:52:01.376Z,37.03
2023-09-11T13:54:28.865Z,35.82
2023-09-11T13:56:56.465Z,35.90
2023-09-11T13:59:24.283Z,35.97
2023-09-11T14:01:51.888Z,35.83
2023-09-11T14:04:19.580Z,35.80
2023-09-11T14:06:47.141Z,35.95
2023-09-11T14:09:14.725Z,34.60
2023-09-11T14:11:42.300Z,34.44
2023-09-11T14:14:09.774Z,34.37
2023-09-11T14:16:37.305Z,34.52
2023-09-11T14:19:09.105Z,34.55
2023-09-11T14:21:36.858Z,35.71
2023-09-11T14:24:05.628Z,34.64
2023-09-11T14:26:33.271Z,34.50
2023-09-11T14:29:00.749Z,34.44
2023-09-11T14:31:29.288Z,34.32
2023-09-11T14:33:57.474Z,34.48
2023-09-11T14:36:25.057Z,34.42
2023-09-11T14:38:53.254Z,34.81
2023-09-11T14:41:20.837Z,34.68
2023-09-11T14:43:48.328Z,34.78
2023-09-11T14:46:15.831Z,34.36
2023-09-11T14:48:43.631Z,34.54
2023-09-11T14:51:11.597Z,35.07
2023-09-11T14:53:43.030Z,34.52
2023-09-11T14:56:10.551Z,34.75
2023-09-11T14:58:38.023Z,34.42
2023-09-11T15:01:05.730Z,34.39
2023-09-11T15:03:33.347Z,34.22
2023-09-11T15:06:00.982Z,34.33
2023-09-11T15:08:28.462Z,34.00
2023-09-11T15:11:03.115Z,33.62
2023-09-11T15:13:31.851Z,33.18
2023-09-11T15:15:59.997Z,33.42
2023-09-11T15:18:28.059Z,33.83
2023-09-11T15:20:56.063Z,33.53
2023-09-11T15:23:23.674Z,33.44
2023-09-11T15:25:51.196Z,33.66
2023-09-11T15:28:18.706Z,33.56
2023-09-11T15:30:53.043Z,33.59
2023-09-11T15:33:21.390Z,33.92
2023-09-11T15:36:08.185Z,33.48
2023-09-11T15:38:42.260Z,33.31
2023-09-11T15:41:12.222Z,34.37
2023-09-11T15:43:43.971Z,33.86
2023-09-11T15:46:21.919Z,32.88
2023-09-11T15:48:52.480Z,32.69
2023-09-11T15:51:20.012Z,32.23
2023-09-11T15:53:47.561Z,33.08
2023-09-11T15:56:16.058Z,32.69
2023-09-11T15:58:45.737Z,32.97
2023-09-11T16:01:13.302Z,33.21
2023-09-11T16:03:40.923Z,32.98
2023-09-11T16:06:09.442Z,33.23
2023-09-11T16:08:36.970Z,32.81
2023-09-11T16:11:04.597Z,33.34
2023-09-11T16:13:32.038Z,33.20
2023-09-11T16:15:59.784Z,32.75
2023-09-11T16:18:27.423Z,32.06
2023-09-11T16:20:55.009Z,32.79
2023-09-11T16:23:22.579Z,32.81
2023-09-11T16:25:50.234Z,32.34
2023-09-11T16:28:17.989Z,32.40
2023-09-11T16:30:45.456Z,32.46
2023-09-11T16:33:14.314Z,32.78
2023-09-11T16:35:43.087Z,32.60
2023-09-11T16:38:10.594Z,32.17
2023-09-11T16:40:38.089Z,32.86
2023-09-11T16:43:05.551Z,33.12
2023-09-11T16:45:33.074Z,33.43
2023-09-11T16:48:00.690Z,33.29
2023-09-11T16:50:28.195Z,33.42
2023-09-11T16:52:57.195Z,33.77
2023-09-11T16:55:24.868Z,33.53
2023-09-11T16:57:52.365Z,33.67
2023-09-11T17:00:21.919Z,33.75
2023-09-11T17:02:52.168Z,34.34
2023-09-11T17:05:20.306Z,34.54
2023-09-11T17:07:48.138Z,34.32
2023-09-11T17:10:19.578Z,34.76
2023-09-11T17:12:47.003Z,34.75
2023-09-11T17:15:14.577Z,35.00
2023-09-11T17:17:45.733Z,35.09
2023-09-11T17:20:16.559Z,35.20
2023-09-11T17:22:44.136Z,35.50
2023-09-11T17:25:11.804Z,35.74
2023-09-11T17:27:39.307Z,35.64
2023-09-11T17:30:08.322Z,35.58
2023-09-11T17:32:40.461Z,35.59
2023-09-11T17:35:08.599Z,35.36
2023-09-11T17:37:41.323Z,36.08
2023-09-11T17:40:09.533Z,36.18
2023-09-11T17:42:38.775Z,37.21
2023-09-11T17:45:10.397Z,37.23
2023-09-11T17:47:39.180Z,37.06
2023-09-11T17:50:08.204Z,37.55
2023-09-11T17:52:35.846Z,37.17
2023-09-11T17:55:04.086Z,37.67
2023-09-11T17:57:32.967Z,38.07
2023-09-11T18:00:00.743Z,38.21
2023-09-11T18:02:28.389Z,38.40
2023-09-11T18:04:58.970Z,38.93
2023-09-11T18:07:26.802Z,38.85
2023-09-11T18:09:54.249Z,39.18
2023-09-11T18:12:21.873Z,39.04
2023-09-11T18:14:49.704Z,39.64
2023-09-11T18:17:17.870Z,40.45
2023-09-11T18:19:45.410Z,40.26
2023-09-11T18:22:13.308Z,40.50
2023-09-11T18:24:43.314Z,40.56
2023-09-11T18:27:11.002Z,40.75
2023-09-11T18:29:38.601Z,41.10
2023-09-11T18:32:06.226Z,41.74
2023-09-11T18:34:33.887Z,42.22
2023-09-11T18:37:01.353Z,42.61
2023-09-11T18:39:29.021Z,43.01
2023-09-11T18:41:59.029Z,43.91
2023-09-11T18:44:27.769Z,43.93
2023-09-11T18:46:55.587Z,44.70
2023-09-11T18:49:23.135Z,50.91
2023-09-11T18:51:56.962Z,50.04
2023-09-11T18:54:26.623Z,47.71
2023-09-11T18:56:58.618Z,49.83
2023-09-11T18:59:26.159Z,50.64
2023-09-11T19:02:02.306Z,49.96
2023-09-11T19:04:31.266Z,49.47
2023-09-11T19:07:00.131Z,47.96
2023-09-11T19:09:27.650Z,49.10
2023-09-11T19:11:55.185Z,50.48
2023-09-11T19:14:22.644Z,50.01
2023-09-11T19:16:50.119Z,50.31
2023-09-11T19:19:19.277Z,49.71
2023-09-11T19:21:47.186Z,50.04
2023-09-11T19:24:14.983Z,49.57
2023-09-11T19:26:42.894Z,50.16
2023-09-11T19:29:10.371Z,51.21
2023-09-11T19:31:38.379Z,51.61
2023-09-11T19:34:05.964Z,51.08
2023-09-11T19:36:33.512Z,52.31
2023-09-11T19:39:01.051Z,52.59
2023-09-11T19:41:28.531Z,52.75
2023-09-11T19:43:55.969Z,53.08
2023-09-11T19:46:23.513Z,52.97
2023-09-11T19:48:51.183Z,53.60
2023-09-11T19:51:19.435Z,54.17
2023-09-11T19:53:46.915Z,53.93
2023-09-11T19:56:14.380Z,54.25
2023-09-11T19:58:42.080Z,54.41
2023-09-11T20:01:09.776Z,53.84
2023-09-11T20:03:37.609Z,54.41
2023-09-11T20:06:05.243Z,54.74
2023-09-11T20:08:32.706Z,55.14
2023-09-11T20:11:00.184Z,54.88
2023-09-11T20:13:30.297Z,55.54
2023-09-11T20:15:57.880Z,56.50
2023-09-11T20:18:25.449Z,56.14
2023-09-11T20:20:53.034Z,56.94
2023-09-11T20:23:21.766Z,57.66
2023-09-11T20:25:49.270Z,57.33
2023-09-11T20:28:16.692Z,57.78
2023-09-11T20:30:44.643Z,58.11
2023-09-11T20:33:12.155Z,57.91
2023-09-11T20:35:41.396Z,57.76
2023-09-11T20:38:08.909Z,58.32
2023-09-11T20:40:36.544Z,58.92
2023-09-11T20:43:04.651Z,59.62
2023-09-11T20:45:32.601Z,59.24
2023-09-11T20:48:00.241Z,59.17
2023-09-11T20:50:27.823Z,59.85
2023-09-11T20:52:56.000Z,60.63
2023-09-11T20:55:23.692Z,60.92
2023-09-11T20:57:51.619Z,61.17
2023-09-11T21:00:19.279Z,61.87
2023-09-11T21:02:46.841Z,62.26
2023-09-11T21:05:14.540Z,61.54
2023-09-11T21:07:43.467Z,62.00
2023-09-11T21:10:11.914Z,62.55
2023-09-11T21:12:57.497Z,62.83
2023-09-11T21:15:28.018Z,63.57
2023-09-11T21:17:56.258Z,64.79
2023-09-11T21:20:24.087Z,63.84
2023-09-11T21:22:51.684Z,100.00
2023-09-11T21:25:19.625Z,65.62
2023-09-11T21:27:47.223Z,67.38
2023-09-11T21:30:14.813Z,66.12
2023-09-11T21:32:42.353Z,68.20
2023-09-11T21:35:10.053Z,67.98
2023-09-11T21:37:38.888Z,68.26
2023-09-11T21:40:07.682Z,68.25
2023-09-11T21:42:35.457Z,68.67
2023-09-11T21:45:03.603Z,68.26
2023-09-11T21:47:31.487Z,67.85
2023-09-11T21:49:59.065Z,68.64
2023-09-11T21:52:26.574Z,68.81
2023-09-11T21:54:54.126Z,68.76
2023-09-11T21:57:21.668Z,69.42
2023-09-11T21:59:49.113Z,68.46
2023-09-11T22:02:19.099Z,68.75
2023-09-11T22:04:55.431Z,69.16
2023-09-11T22:07:22.845Z,70.34
2023-09-11T22:09:50.359Z,72.15
2023-09-11T22:12:17.886Z,72.71
2023-09-11T22:14:47.158Z,71.71
2023-09-11T22:17:14.858Z,73.26
2023-09-11T22:19:42.305Z,72.72
2023-09-11T22:22:09.737Z,73.82
2023-09-11T22:24:37.353Z,76.21
2023-09-11T22:27:17.258Z,77.08
2023-09-11T22:29:50.224Z,77.10
2023-09-11T22:32:17.770Z,75.14
2023-09-11T22:34:45.365Z,74.81
2023-09-11T22:37:13.134Z,74.32
2023-09-11T22:39:40.995Z,75.49
2023-09-11T22:42:08.556Z,76.30
2023-09-11T22:44:36.150Z,74.90
2023-09-11T22:47:04.962Z,75.03
2023-09-11T22:49:32.727Z,77.63
2023-09-11T22:52:00.761Z,77.86
2023-09-11T22:54:29.531Z,79.00
2023-09-11T22:56:57.121Z,79.71
2023-09-11T22:59:24.623Z,81.45
2023-09-11T23:01:52.146Z,80.54
2023-09-11T23:04:19.973Z,81.64
2023-09-11T23:06:47.527Z,80.81
2023-09-11T23:09:15.011Z,81.79
2023-09-11T23:11:42.431Z,82.07
2023-09-11T23:14:09.953Z,80.38
2023-09-11T23:16:37.450Z,81.07
2023-09-11T23:19:04.950Z,80.36
2023-09-11T23:21:32.513Z,79.71
2023-09-11T23:24:13.459Z,79.91
2023-09-11T23:26:45.535Z,79.12
2023-09-11T23:29:13.106Z,78.68
2023-09-11T23:31:40.605Z,79.18
2023-09-11T23:34:08.142Z,78.59
2023-09-11T23:36:36.545Z,79.71
2023-09-11T23:39:04.911Z,80.64
2023-09-11T23:41:32.545Z,79.82
2023-09-11T23:44:00.456Z,81.22
2023-09-11T23:46:30.302Z,79.72
2023-09-11T23:48:58.225Z,82.24
2023-09-11T23:51:25.880Z,81.22
2023-09-11T23:53:53.622Z,79.83
2023-09-11T23:56:21.042Z,78.81
2023-09-11T23:58:48.465Z,79.06
